sensor_id;sensor_type;location;lat;lon;timestamp;P1;durP1;ratioP1;P2;durP2;ratioP2
38783;SDS011;24531;45.502;12.238;2022-07-10T00:00:30;3.75;;;1.15;;
38783;SDS011;24531;45.502;12.238;2022-07-10T00:02:59;3.67;;;1.50;;
38783;SDS011;24531;45.502;12.238;2022-07-10T00:05:25;6.20;;;1.50;;
38783;SDS011;24531;45.502;12.238;2022-07-10T00:07:51;7.55;;;1.67;;
38783;SDS011;24531;45.502;12.238;2022-07-10T00:10:17;4.00;;;1.58;;
38783;SDS011;24531;45.502;12.238;2022-07-10T00:12:44;4.05;;;1.30;;
38783;SDS011;24531;45.502;12.238;2022-07-10T00:15:10;1.83;;;1.13;;
38783;SDS011;24531;45.502;12.238;2022-07-10T00:17:36;2.00;;;1.35;;
38783;SDS011;24531;45.502;12.238;2022-07-10T00:20:04;2.75;;;1.27;;
38783;SDS011;24531;45.502;12.238;2022-07-10T00:22:32;2.80;;;1.05;;
38783;SDS011;24531;45.502;12.238;2022-07-10T00:25:02;3.45;;;1.20;;
38783;SDS011;24531;45.502;12.238;2022-07-10T00:27:28;3.17;;;1.25;;
38783;SDS011;24531;45.502;12.238;2022-07-10T00:29:53;4.30;;;1.23;;
38783;SDS011;24531;45.502;12.238;2022-07-10T00:32:19;1.40;;;1.05;;
38783;SDS011;24531;45.502;12.238;2022-07-10T00:34:45;5.18;;;1.70;;
38783;SDS011;24531;45.502;12.238;2022-07-10T00:37:10;2.70;;;1.10;;
38783;SDS011;24531;45.502;12.238;2022-07-10T00:39:36;2.97;;;1.20;;
38783;SDS011;24531;45.502;12.238;2022-07-10T00:42:09;1.55;;;0.90;;
38783;SDS011;24531;45.502;12.238;2022-07-10T00:44:37;2.45;;;1.10;;
38783;SDS011;24531;45.502;12.238;2022-07-10T00:47:06;3.75;;;1.00;;
38783;SDS011;24531;45.502;12.238;2022-07-10T00:49:33;3.85;;;1.10;;
38783;SDS011;24531;45.502;12.238;2022-07-10T00:52:00;2.08;;;1.13;;
38783;SDS011;24531;45.502;12.238;2022-07-10T00:54:29;2.38;;;0.95;;
38783;SDS011;24531;45.502;12.238;2022-07-10T00:56:56;4.72;;;1.35;;
38783;SDS011;24531;45.502;12.238;2022-07-10T00:59:22;7.38;;;1.27;;
38783;SDS011;24531;45.502;12.238;2022-07-10T01:01:50;2.50;;;1.17;;
38783;SDS011;24531;45.502;12.238;2022-07-10T01:04:16;6.47;;;1.40;;
38783;SDS011;24531;45.502;12.238;2022-07-10T01:06:42;3.67;;;1.20;;
38783;SDS011;24531;45.502;12.238;2022-07-10T01:09:08;3.08;;;1.10;;
38783;SDS011;24531;45.502;12.238;2022-07-10T01:11:34;4.78;;;1.35;;
38783;SDS011;24531;45.502;12.238;2022-07-10T01:14:02;5.15;;;1.27;;
38783;SDS011;24531;45.502;12.238;2022-07-10T01:16:28;7.93;;;1.42;;
38783;SDS011;24531;45.502;12.238;2022-07-10T01:18:54;3.38;;;1.33;;
38783;SDS011;24531;45.502;12.238;2022-07-10T01:21:24;3.33;;;1.15;;
38783;SDS011;24531;45.502;12.238;2022-07-10T01:23:51;3.40;;;1.00;;
38783;SDS011;24531;45.502;12.238;2022-07-10T01:26:17;4.47;;;1.02;;
38783;SDS011;24531;45.502;12.238;2022-07-10T01:28:43;2.40;;;1.23;;
38783;SDS011;24531;45.502;12.238;2022-07-10T01:31:10;3.03;;;1.20;;
38783;SDS011;24531;45.502;12.238;2022-07-10T01:33:35;7.03;;;1.05;;
38783;SDS011;24531;45.502;12.238;2022-07-10T01:36:01;4.82;;;1.10;;
38783;SDS011;24531;45.502;12.238;2022-07-10T01:38:27;4.00;;;1.23;;
38783;SDS011;24531;45.502;12.238;2022-07-10T01:40:52;1.27;;;1.00;;
38783;SDS011;24531;45.502;12.238;2022-07-10T01:43:19;6.25;;;1.60;;
38783;SDS011;24531;45.502;12.238;2022-07-10T01:45:45;3.60;;;1.23;;
38783;SDS011;24531;45.502;12.238;2022-07-10T01:48:11;3.05;;;1.10;;
38783;SDS011;24531;45.502;12.238;2022-07-10T01:50:36;4.70;;;1.15;;
38783;SDS011;24531;45.502;12.238;2022-07-10T01:53:03;4.28;;;1.20;;
38783;SDS011;24531;45.502;12.238;2022-07-10T01:55:31;4.32;;;1.20;;
38783;SDS011;24531;45.502;12.238;2022-07-10T01:57:56;2.67;;;1.40;;
38783;SDS011;24531;45.502;12.238;2022-07-10T02:00:22;4.00;;;1.10;;
38783;SDS011;24531;45.502;12.238;2022-07-10T02:02:48;4.05;;;0.95;;
38783;SDS011;24531;45.502;12.238;2022-07-10T02:05:34;2.53;;;1.42;;
38783;SDS011;24531;45.502;12.238;2022-07-10T02:08:00;3.22;;;1.40;;
38783;SDS011;24531;45.502;12.238;2022-07-10T02:10:28;3.40;;;1.33;;
38783;SDS011;24531;45.502;12.238;2022-07-10T02:12:54;5.55;;;1.33;;
38783;SDS011;24531;45.502;12.238;2022-07-10T02:15:21;3.65;;;1.55;;
38783;SDS011;24531;45.502;12.238;2022-07-10T02:17:47;8.57;;;1.45;;
38783;SDS011;24531;45.502;12.238;2022-07-10T02:20:12;1.65;;;1.30;;
38783;SDS011;24531;45.502;12.238;2022-07-10T02:22:38;5.15;;;1.10;;
38783;SDS011;24531;45.502;12.238;2022-07-10T02:25:04;7.00;;;1.60;;
38783;SDS011;24531;45.502;12.238;2022-07-10T02:27:30;2.58;;;1.33;;
38783;SDS011;24531;45.502;12.238;2022-07-10T02:29:56;6.95;;;1.20;;
38783;SDS011;24531;45.502;12.238;2022-07-10T02:32:21;8.70;;;1.08;;
38783;SDS011;24531;45.502;12.238;2022-07-10T02:34:47;3.83;;;1.38;;
38783;SDS011;24531;45.502;12.238;2022-07-10T02:37:12;5.93;;;1.33;;
38783;SDS011;24531;45.502;12.238;2022-07-10T02:39:38;2.63;;;1.15;;
38783;SDS011;24531;45.502;12.238;2022-07-10T02:42:04;4.85;;;1.30;;
38783;SDS011;24531;45.502;12.238;2022-07-10T02:44:29;7.55;;;1.10;;
38783;SDS011;24531;45.502;12.238;2022-07-10T02:46:55;1.98;;;1.30;;
38783;SDS011;24531;45.502;12.238;2022-07-10T02:49:20;3.40;;;1.33;;
38783;SDS011;24531;45.502;12.238;2022-07-10T02:51:46;1.70;;;1.20;;
38783;SDS011;24531;45.502;12.238;2022-07-10T02:54:12;3.63;;;1.73;;
38783;SDS011;24531;45.502;12.238;2022-07-10T02:56:37;4.47;;;1.23;;
38783;SDS011;24531;45.502;12.238;2022-07-10T02:59:04;1.95;;;0.95;;
38783;SDS011;24531;45.502;12.238;2022-07-10T03:01:31;6.70;;;1.42;;
38783;SDS011;24531;45.502;12.238;2022-07-10T03:03:57;2.40;;;1.27;;
38783;SDS011;24531;45.502;12.238;2022-07-10T03:06:22;5.57;;;1.08;;
38783;SDS011;24531;45.502;12.238;2022-07-10T03:08:48;3.00;;;0.90;;
38783;SDS011;24531;45.502;12.238;2022-07-10T03:11:14;2.42;;;1.30;;
38783;SDS011;24531;45.502;12.238;2022-07-10T03:13:40;3.13;;;1.13;;
38783;SDS011;24531;45.502;12.238;2022-07-10T03:16:05;6.95;;;1.65;;
38783;SDS011;24531;45.502;12.238;2022-07-10T03:18:31;7.07;;;1.50;;
38783;SDS011;24531;45.502;12.238;2022-07-10T03:20:57;2.55;;;1.23;;
38783;SDS011;24531;45.502;12.238;2022-07-10T03:23:22;2.22;;;0.90;;
38783;SDS011;24531;45.502;12.238;2022-07-10T03:25:48;8.90;;;1.23;;
38783;SDS011;24531;45.502;12.238;2022-07-10T03:28:14;2.70;;;1.25;;
38783;SDS011;24531;45.502;12.238;2022-07-10T03:30:39;1.30;;;1.00;;
38783;SDS011;24531;45.502;12.238;2022-07-10T03:33:05;4.03;;;1.15;;
38783;SDS011;24531;45.502;12.238;2022-07-10T03:35:31;2.05;;;0.80;;
38783;SDS011;24531;45.502;12.238;2022-07-10T03:37:56;2.58;;;1.08;;
38783;SDS011;24531;45.502;12.238;2022-07-10T03:40:22;3.75;;;1.00;;
38783;SDS011;24531;45.502;12.238;2022-07-10T03:42:48;1.08;;;0.80;;
38783;SDS011;24531;45.502;12.238;2022-07-10T03:45:14;1.30;;;0.80;;
38783;SDS011;24531;45.502;12.238;2022-07-10T03:47:40;3.17;;;1.23;;
38783;SDS011;24531;45.502;12.238;2022-07-10T03:50:06;4.03;;;1.02;;
38783;SDS011;24531;45.502;12.238;2022-07-10T03:52:31;5.10;;;1.40;;
38783;SDS011;24531;45.502;12.238;2022-07-10T03:54:57;2.65;;;0.80;;
38783;SDS011;24531;45.502;12.238;2022-07-10T03:57:23;2.75;;;1.52;;
38783;SDS011;24531;45.502;12.238;2022-07-10T04:00:07;4.65;;;1.23;;
38783;SDS011;24531;45.502;12.238;2022-07-10T04:02:33;7.35;;;1.98;;
38783;SDS011;24531;45.502;12.238;2022-07-10T04:04:59;5.18;;;1.63;;
38783;SDS011;24531;45.502;12.238;2022-07-10T04:07:24;7.10;;;1.30;;
38783;SDS011;24531;45.502;12.238;2022-07-10T04:09:50;3.90;;;1.55;;
38783;SDS011;24531;45.502;12.238;2022-07-10T04:12:16;2.40;;;1.27;;
38783;SDS011;24531;45.502;12.238;2022-07-10T04:14:41;2.30;;;1.40;;
38783;SDS011;24531;45.502;12.238;2022-07-10T04:17:07;3.75;;;1.10;;
38783;SDS011;24531;45.502;12.238;2022-07-10T04:19:33;4.05;;;1.30;;
38783;SDS011;24531;45.502;12.238;2022-07-10T04:21:59;3.47;;;1.40;;
38783;SDS011;24531;45.502;12.238;2022-07-10T04:24:25;3.65;;;1.60;;
38783;SDS011;24531;45.502;12.238;2022-07-10T04:26:50;2.53;;;1.42;;
38783;SDS011;24531;45.502;12.238;2022-07-10T04:29:16;3.85;;;1.45;;
38783;SDS011;24531;45.502;12.238;2022-07-10T04:31:42;3.28;;;1.48;;
38783;SDS011;24531;45.502;12.238;2022-07-10T04:34:07;3.33;;;1.48;;
38783;SDS011;24531;45.502;12.238;2022-07-10T04:36:33;4.88;;;1.92;;
38783;SDS011;24531;45.502;12.238;2022-07-10T04:38:59;10.15;;;1.88;;
38783;SDS011;24531;45.502;12.238;2022-07-10T04:41:24;4.28;;;1.70;;
38783;SDS011;24531;45.502;12.238;2022-07-10T04:43:50;4.47;;;2.05;;
38783;SDS011;24531;45.502;12.238;2022-07-10T04:46:16;7.47;;;2.10;;
38783;SDS011;24531;45.502;12.238;2022-07-10T04:48:41;3.65;;;2.28;;
38783;SDS011;24531;45.502;12.238;2022-07-10T04:51:07;10.77;;;2.72;;
38783;SDS011;24531;45.502;12.238;2022-07-10T04:53:33;4.72;;;1.90;;
38783;SDS011;24531;45.502;12.238;2022-07-10T04:55:59;7.63;;;2.47;;
38783;SDS011;24531;45.502;12.238;2022-07-10T04:58:25;9.93;;;2.90;;
38783;SDS011;24531;45.502;12.238;2022-07-10T05:00:50;3.95;;;2.00;;
38783;SDS011;24531;45.502;12.238;2022-07-10T05:03:16;5.93;;;1.95;;
38783;SDS011;24531;45.502;12.238;2022-07-10T05:05:42;6.43;;;2.63;;
38783;SDS011;24531;45.502;12.238;2022-07-10T05:08:08;4.68;;;2.05;;
38783;SDS011;24531;45.502;12.238;2022-07-10T05:10:35;3.83;;;2.33;;
38783;SDS011;24531;45.502;12.238;2022-07-10T05:13:00;3.38;;;1.70;;
38783;SDS011;24531;45.502;12.238;2022-07-10T05:15:26;4.65;;;1.80;;
38783;SDS011;24531;45.502;12.238;2022-07-10T05:17:51;4.63;;;1.90;;
38783;SDS011;24531;45.502;12.238;2022-07-10T05:20:17;7.45;;;2.20;;
38783;SDS011;24531;45.502;12.238;2022-07-10T05:22:42;5.38;;;1.92;;
38783;SDS011;24531;45.502;12.238;2022-07-10T05:25:08;5.20;;;1.65;;
38783;SDS011;24531;45.502;12.238;2022-07-10T05:27:34;3.38;;;1.83;;
38783;SDS011;24531;45.502;12.238;2022-07-10T05:29:59;7.50;;;1.60;;
38783;SDS011;24531;45.502;12.238;2022-07-10T05:32:25;2.55;;;1.63;;
38783;SDS011;24531;45.502;12.238;2022-07-10T05:34:50;3.38;;;2.03;;
38783;SDS011;24531;45.502;12.238;2022-07-10T05:37:16;5.43;;;2.25;;
38783;SDS011;24531;45.502;12.238;2022-07-10T05:39:42;4.15;;;2.25;;
38783;SDS011;24531;45.502;12.238;2022-07-10T05:42:08;4.63;;;1.70;;
38783;SDS011;24531;45.502;12.238;2022-07-10T05:44:34;3.78;;;2.15;;
38783;SDS011;24531;45.502;12.238;2022-07-10T05:47:00;2.40;;;1.88;;
38783;SDS011;24531;45.502;12.238;2022-07-10T05:49:25;2.88;;;1.70;;
38783;SDS011;24531;45.502;12.238;2022-07-10T05:51:51;2.22;;;1.33;;
38783;SDS011;24531;45.502;12.238;2022-07-10T05:54:16;5.32;;;1.83;;
38783;SDS011;24531;45.502;12.238;2022-07-10T05:56:42;3.42;;;1.63;;
38783;SDS011;24531;45.502;12.238;2022-07-10T05:59:09;4.40;;;1.55;;
38783;SDS011;24531;45.502;12.238;2022-07-10T06:01:38;2.00;;;1.25;;
38783;SDS011;24531;45.502;12.238;2022-07-10T06:04:04;5.15;;;1.52;;
38783;SDS011;24531;45.502;12.238;2022-07-10T06:06:29;4.10;;;1.77;;
38783;SDS011;24531;45.502;12.238;2022-07-10T06:08:55;1.98;;;1.70;;
38783;SDS011;24531;45.502;12.238;2022-07-10T06:11:20;2.70;;;1.50;;
38783;SDS011;24531;45.502;12.238;2022-07-10T06:13:46;2.17;;;1.42;;
38783;SDS011;24531;45.502;12.238;2022-07-10T06:16:12;3.83;;;1.50;;
38783;SDS011;24531;45.502;12.238;2022-07-10T06:18:37;8.13;;;1.90;;
38783;SDS011;24531;45.502;12.238;2022-07-10T06:21:03;5.20;;;1.40;;
38783;SDS011;24531;45.502;12.238;2022-07-10T06:23:29;2.28;;;0.90;;
38783;SDS011;24531;45.502;12.238;2022-07-10T06:25:54;2.05;;;1.05;;
38783;SDS011;24531;45.502;12.238;2022-07-10T06:28:20;3.58;;;1.38;;
38783;SDS011;24531;45.502;12.238;2022-07-10T06:30:46;3.83;;;1.17;;
38783;SDS011;24531;45.502;12.238;2022-07-10T06:33:12;3.17;;;0.98;;
38783;SDS011;24531;45.502;12.238;2022-07-10T06:35:37;6.20;;;1.58;;
38783;SDS011;24531;45.502;12.238;2022-07-10T06:38:03;2.85;;;1.23;;
38783;SDS011;24531;45.502;12.238;2022-07-10T06:40:29;3.53;;;1.58;;
38783;SDS011;24531;45.502;12.238;2022-07-10T06:42:57;3.78;;;1.88;;
38783;SDS011;24531;45.502;12.238;2022-07-10T06:45:25;1.65;;;1.20;;
38783;SDS011;24531;45.502;12.238;2022-07-10T06:47:51;4.65;;;1.55;;
38783;SDS011;24531;45.502;12.238;2022-07-10T06:50:29;2.00;;;1.00;;
38783;SDS011;24531;45.502;12.238;2022-07-10T06:52:56;2.15;;;1.60;;
38783;SDS011;24531;45.502;12.238;2022-07-10T06:55:22;2.72;;;1.48;;
38783;SDS011;24531;45.502;12.238;2022-07-10T06:57:51;3.60;;;1.33;;
38783;SDS011;24531;45.502;12.238;2022-07-10T07:00:16;3.95;;;1.42;;
38783;SDS011;24531;45.502;12.238;2022-07-10T07:02:42;1.52;;;1.23;;
38783;SDS011;24531;45.502;12.238;2022-07-10T07:05:08;3.70;;;2.05;;
38783;SDS011;24531;45.502;12.238;2022-07-10T07:07:34;3.13;;;1.48;;
38783;SDS011;24531;45.502;12.238;2022-07-10T07:10:00;6.15;;;1.48;;
38783;SDS011;24531;45.502;12.238;2022-07-10T07:12:27;3.10;;;1.33;;
38783;SDS011;24531;45.502;12.238;2022-07-10T07:14:53;3.28;;;1.60;;
38783;SDS011;24531;45.502;12.238;2022-07-10T07:17:18;5.80;;;1.60;;
38783;SDS011;24531;45.502;12.238;2022-07-10T07:19:48;3.70;;;1.50;;
38783;SDS011;24531;45.502;12.238;2022-07-10T07:22:33;3.40;;;1.90;;
38783;SDS011;24531;45.502;12.238;2022-07-10T07:25:18;4.68;;;1.50;;
38783;SDS011;24531;45.502;12.238;2022-07-10T07:27:43;2.75;;;1.40;;
38783;SDS011;24531;45.502;12.238;2022-07-10T07:30:10;22.48;;;2.85;;
38783;SDS011;24531;45.502;12.238;2022-07-10T07:32:39;2.72;;;1.40;;
38783;SDS011;24531;45.502;12.238;2022-07-10T07:35:06;4.95;;;1.55;;
38783;SDS011;24531;45.502;12.238;2022-07-10T07:37:36;3.65;;;1.02;;
38783;SDS011;24531;45.502;12.238;2022-07-10T07:40:03;1.55;;;0.88;;
38783;SDS011;24531;45.502;12.238;2022-07-10T07:42:30;1.90;;;1.20;;
38783;SDS011;24531;45.502;12.238;2022-07-10T07:44:55;1.52;;;0.80;;
38783;SDS011;24531;45.502;12.238;2022-07-10T07:47:21;1.90;;;1.00;;
38783;SDS011;24531;45.502;12.238;2022-07-10T07:49:47;1.63;;;1.00;;
38783;SDS011;24531;45.502;12.238;2022-07-10T07:52:12;1.75;;;1.00;;
38783;SDS011;24531;45.502;12.238;2022-07-10T07:54:39;3.58;;;0.95;;
38783;SDS011;24531;45.502;12.238;2022-07-10T07:57:05;2.75;;;1.20;;
38783;SDS011;24531;45.502;12.238;2022-07-10T07:59:31;2.33;;;0.90;;
38783;SDS011;24531;45.502;12.238;2022-07-10T08:01:56;2.70;;;1.10;;
38783;SDS011;24531;45.502;12.238;2022-07-10T08:04:22;1.60;;;1.00;;
38783;SDS011;24531;45.502;12.238;2022-07-10T08:06:50;2.90;;;0.95;;
38783;SDS011;24531;45.502;12.238;2022-07-10T08:09:20;2.03;;;1.23;;
38783;SDS011;24531;45.502;12.238;2022-07-10T08:11:46;2.83;;;1.30;;
38783;SDS011;24531;45.502;12.238;2022-07-10T08:14:14;1.20;;;0.80;;
38783;SDS011;24531;45.502;12.238;2022-07-10T08:16:40;1.38;;;1.00;;
38783;SDS011;24531;45.502;12.238;2022-07-10T08:19:06;4.20;;;0.70;;
38783;SDS011;24531;45.502;12.238;2022-07-10T08:21:34;3.80;;;1.25;;
38783;SDS011;24531;45.502;12.238;2022-07-10T08:24:00;3.92;;;0.80;;
38783;SDS011;24531;45.502;12.238;2022-07-10T08:26:26;1.50;;;0.88;;
38783;SDS011;24531;45.502;12.238;2022-07-10T08:28:52;1.58;;;0.60;;
38783;SDS011;24531;45.502;12.238;2022-07-10T08:31:17;4.55;;;0.75;;
38783;SDS011;24531;45.502;12.238;2022-07-10T08:33:43;0.80;;;0.80;;
38783;SDS011;24531;45.502;12.238;2022-07-10T08:36:08;1.13;;;0.63;;
38783;SDS011;24531;45.502;12.238;2022-07-10T08:38:34;2.80;;;0.77;;
38783;SDS011;24531;45.502;12.238;2022-07-10T08:41:00;2.80;;;0.55;;
38783;SDS011;24531;45.502;12.238;2022-07-10T08:43:28;0.30;;;0.30;;
38783;SDS011;24531;45.502;12.238;2022-07-10T08:45:54;1.65;;;0.68;;
38783;SDS011;24531;45.502;12.238;2022-07-10T08:48:21;3.13;;;0.77;;
38783;SDS011;24531;45.502;12.238;2022-07-10T08:50:51;0.95;;;0.45;;
38783;SDS011;24531;45.502;12.238;2022-07-10T08:53:24;7.57;;;0.60;;
38783;SDS011;24531;45.502;12.238;2022-07-10T08:55:56;2.58;;;0.47;;
38783;SDS011;24531;45.502;12.238;2022-07-10T08:58:22;1.10;;;0.52;;
38783;SDS011;24531;45.502;12.238;2022-07-10T09:00:49;0.82;;;0.70;;
38783;SDS011;24531;45.502;12.238;2022-07-10T09:03:14;0.60;;;0.30;;
38783;SDS011;24531;45.502;12.238;2022-07-10T09:05:40;1.17;;;0.50;;
38783;SDS011;24531;45.502;12.238;2022-07-10T09:08:22;0.70;;;0.32;;
38783;SDS011;24531;45.502;12.238;2022-07-10T09:13:52;1.58;;;0.70;;
38783;SDS011;24531;45.502;12.238;2022-07-10T09:16:22;2.05;;;0.65;;
38783;SDS011;24531;45.502;12.238;2022-07-10T09:18:49;0.98;;;0.50;;
38783;SDS011;24531;45.502;12.238;2022-07-10T09:21:15;0.68;;;0.47;;
38783;SDS011;24531;45.502;12.238;2022-07-10T09:23:41;2.20;;;0.80;;
38783;SDS011;24531;45.502;12.238;2022-07-10T09:26:07;3.67;;;0.50;;
38783;SDS011;24531;45.502;12.238;2022-07-10T09:28:32;0.80;;;0.57;;
38783;SDS011;24531;45.502;12.238;2022-07-10T09:30:58;1.30;;;0.32;;
38783;SDS011;24531;45.502;12.238;2022-07-10T09:33:27;1.30;;;0.60;;
38783;SDS011;24531;45.502;12.238;2022-07-10T09:41:14;5.07;;;1.00;;
38783;SDS011;24531;45.502;12.238;2022-07-10T09:43:43;0.60;;;0.60;;
38783;SDS011;24531;45.502;12.238;2022-07-10T09:46:16;2.40;;;0.60;;
38783;SDS011;24531;45.502;12.238;2022-07-10T09:48:43;1.27;;;0.70;;
38783;SDS011;24531;45.502;12.238;2022-07-10T09:51:10;3.72;;;0.82;;
38783;SDS011;24531;45.502;12.238;2022-07-10T09:53:42;2.13;;;0.60;;
38783;SDS011;24531;45.502;12.238;2022-07-10T09:56:12;1.55;;;0.50;;
38783;SDS011;24531;45.502;12.238;2022-07-10T09:58:38;1.55;;;1.05;;
38783;SDS011;24531;45.502;12.238;2022-07-10T10:01:05;2.92;;;0.93;;
38783;SDS011;24531;45.502;12.238;2022-07-10T10:06:11;2.17;;;0.95;;
38783;SDS011;24531;45.502;12.238;2022-07-10T10:11:43;2.38;;;0.60;;
38783;SDS011;24531;45.502;12.238;2022-07-10T10:14:10;3.40;;;0.90;;
38783;SDS011;24531;45.502;12.238;2022-07-10T10:16:37;3.00;;;0.80;;
38783;SDS011;24531;45.502;12.238;2022-07-10T10:19:08;1.75;;;0.43;;
38783;SDS011;24531;45.502;12.238;2022-07-10T10:21:54;3.60;;;0.82;;
38783;SDS011;24531;45.502;12.238;2022-07-10T10:24:22;2.42;;;0.82;;
38783;SDS011;24531;45.502;12.238;2022-07-10T10:26:50;1.02;;;0.55;;
38783;SDS011;24531;45.502;12.238;2022-07-10T10:29:16;2.17;;;0.90;;
38783;SDS011;24531;45.502;12.238;2022-07-10T10:31:42;2.20;;;1.02;;
38783;SDS011;24531;45.502;12.238;2022-07-10T10:34:11;2.10;;;0.73;;
38783;SDS011;24531;45.502;12.238;2022-07-10T10:39:10;1.05;;;0.60;;
38783;SDS011;24531;45.502;12.238;2022-07-10T10:44:26;0.75;;;0.40;;
38783;SDS011;24531;45.502;12.238;2022-07-10T10:46:57;2.30;;;0.60;;
38783;SDS011;24531;45.502;12.238;2022-07-10T10:49:26;1.25;;;0.80;;
38783;SDS011;24531;45.502;12.238;2022-07-10T10:52:12;4.82;;;0.70;;
38783;SDS011;24531;45.502;12.238;2022-07-10T10:57:22;2.22;;;0.70;;
38783;SDS011;24531;45.502;12.238;2022-07-10T10:59:56;0.93;;;0.50;;
38783;SDS011;24531;45.502;12.238;2022-07-10T11:13:08;3.58;;;0.77;;
38783;SDS011;24531;45.502;12.238;2022-07-10T11:15:36;1.95;;;0.60;;
38783;SDS011;24531;45.502;12.238;2022-07-10T11:18:04;5.88;;;0.60;;
38783;SDS011;24531;45.502;12.238;2022-07-10T11:20:34;0.75;;;0.55;;
38783;SDS011;24531;45.502;12.238;2022-07-10T11:28:38;1.13;;;0.90;;
38783;SDS011;24531;45.502;12.238;2022-07-10T11:31:06;1.25;;;0.57;;
38783;SDS011;24531;45.502;12.238;2022-07-10T11:33:38;1.20;;;0.63;;
38783;SDS011;24531;45.502;12.238;2022-07-10T11:36:11;2.55;;;0.65;;
38783;SDS011;24531;45.502;12.238;2022-07-10T11:38:39;4.63;;;0.80;;
38783;SDS011;24531;45.502;12.238;2022-07-10T11:41:19;2.17;;;0.70;;
38783;SDS011;24531;45.502;12.238;2022-07-10T11:43:49;2.22;;;0.77;;
38783;SDS011;24531;45.502;12.238;2022-07-10T11:46:15;2.47;;;0.88;;
38783;SDS011;24531;45.502;12.238;2022-07-10T11:48:41;3.05;;;0.77;;
38783;SDS011;24531;45.502;12.238;2022-07-10T11:51:30;1.88;;;0.70;;
38783;SDS011;24531;45.502;12.238;2022-07-10T11:54:03;3.60;;;0.75;;
38783;SDS011;24531;45.502;12.238;2022-07-10T11:56:32;2.97;;;0.60;;
38783;SDS011;24531;45.502;12.238;2022-07-10T11:59:03;7.95;;;1.00;;
38783;SDS011;24531;45.502;12.238;2022-07-10T12:01:43;2.50;;;0.75;;
38783;SDS011;24531;45.502;12.238;2022-07-10T12:04:10;1.88;;;0.70;;
38783;SDS011;24531;45.502;12.238;2022-07-10T12:06:37;0.90;;;0.68;;
38783;SDS011;24531;45.502;12.238;2022-07-10T12:09:11;1.67;;;0.70;;
38783;SDS011;24531;45.502;12.238;2022-07-10T12:11:38;4.97;;;0.90;;
38783;SDS011;24531;45.502;12.238;2022-07-10T12:14:18;2.83;;;0.47;;
38783;SDS011;24531;45.502;12.238;2022-07-10T12:16:46;2.03;;;1.00;;
38783;SDS011;24531;45.502;12.238;2022-07-10T12:19:16;3.83;;;0.80;;
38783;SDS011;24531;45.502;12.238;2022-07-10T12:21:47;1.85;;;0.40;;
38783;SDS011;24531;45.502;12.238;2022-07-10T12:24:15;4.40;;;0.77;;
38783;SDS011;24531;45.502;12.238;2022-07-10T12:26:43;0.95;;;0.70;;
38783;SDS011;24531;45.502;12.238;2022-07-10T12:29:19;2.20;;;0.60;;
38783;SDS011;24531;45.502;12.238;2022-07-10T12:31:52;3.63;;;0.80;;
38783;SDS011;24531;45.502;12.238;2022-07-10T12:34:40;2.38;;;0.68;;
38783;SDS011;24531;45.502;12.238;2022-07-10T12:37:12;3.63;;;0.85;;
38783;SDS011;24531;45.502;12.238;2022-07-10T12:39:49;3.35;;;0.80;;
38783;SDS011;24531;45.502;12.238;2022-07-10T12:42:28;3.00;;;0.70;;
38783;SDS011;24531;45.502;12.238;2022-07-10T12:45:06;3.00;;;0.65;;
38783;SDS011;24531;45.502;12.238;2022-07-10T12:47:44;3.33;;;0.80;;
38783;SDS011;24531;45.502;12.238;2022-07-10T12:50:14;1.10;;;0.50;;
38783;SDS011;24531;45.502;12.238;2022-07-10T12:52:45;4.10;;;1.10;;
38783;SDS011;24531;45.502;12.238;2022-07-10T13:00:23;2.53;;;0.70;;
38783;SDS011;24531;45.502;12.238;2022-07-10T13:08:03;3.33;;;0.60;;
38783;SDS011;24531;45.502;12.238;2022-07-10T13:10:50;1.23;;;0.77;;
38783;SDS011;24531;45.502;12.238;2022-07-10T13:13:17;1.25;;;0.80;;
38783;SDS011;24531;45.502;12.238;2022-07-10T13:15:44;5.60;;;0.98;;
38783;SDS011;24531;45.502;12.238;2022-07-10T13:18:15;2.30;;;0.73;;
38783;SDS011;24531;45.502;12.238;2022-07-10T13:20:42;4.70;;;0.77;;
38783;SDS011;24531;45.502;12.238;2022-07-10T13:23:11;2.35;;;0.77;;
38783;SDS011;24531;45.502;12.238;2022-07-10T13:25:37;1.52;;;0.60;;
38783;SDS011;24531;45.502;12.238;2022-07-10T13:28:06;2.53;;;0.73;;
38783;SDS011;24531;45.502;12.238;2022-07-10T13:30:34;4.70;;;0.90;;
38783;SDS011;24531;45.502;12.238;2022-07-10T13:33:00;0.88;;;0.52;;
38783;SDS011;24531;45.502;12.238;2022-07-10T13:35:27;1.60;;;0.70;;
38783;SDS011;24531;45.502;12.238;2022-07-10T13:37:54;1.35;;;0.75;;
38783;SDS011;24531;45.502;12.238;2022-07-10T13:40:20;4.18;;;0.82;;
38783;SDS011;24531;45.502;12.238;2022-07-10T13:42:46;1.17;;;0.68;;
38783;SDS011;24531;45.502;12.238;2022-07-10T13:45:12;3.63;;;0.98;;
38783;SDS011;24531;45.502;12.238;2022-07-10T13:47:37;2.30;;;0.95;;
38783;SDS011;24531;45.502;12.238;2022-07-10T13:50:03;2.42;;;0.95;;
38783;SDS011;24531;45.502;12.238;2022-07-10T13:52:29;2.97;;;0.50;;
38783;SDS011;24531;45.502;12.238;2022-07-10T13:54:55;3.95;;;1.00;;
38783;SDS011;24531;45.502;12.238;2022-07-10T13:57:21;2.40;;;0.55;;
38783;SDS011;24531;45.502;12.238;2022-07-10T13:59:48;2.72;;;0.60;;
38783;SDS011;24531;45.502;12.238;2022-07-10T14:02:13;0.60;;;0.57;;
38783;SDS011;24531;45.502;12.238;2022-07-10T14:04:39;3.10;;;0.90;;
38783;SDS011;24531;45.502;12.238;2022-07-10T14:07:04;3.78;;;0.90;;
38783;SDS011;24531;45.502;12.238;2022-07-10T14:09:30;3.92;;;0.70;;
38783;SDS011;24531;45.502;12.238;2022-07-10T14:11:56;1.00;;;0.65;;
38783;SDS011;24531;45.502;12.238;2022-07-10T14:14:22;8.98;;;0.88;;
38783;SDS011;24531;45.502;12.238;2022-07-10T14:16:48;1.25;;;0.60;;
38783;SDS011;24531;45.502;12.238;2022-07-10T14:19:15;4.15;;;0.70;;
38783;SDS011;24531;45.502;12.238;2022-07-10T14:21:40;1.70;;;0.52;;
38783;SDS011;24531;45.502;12.238;2022-07-10T14:24:06;2.20;;;0.80;;
38783;SDS011;24531;45.502;12.238;2022-07-10T14:26:32;3.20;;;0.95;;
38783;SDS011;24531;45.502;12.238;2022-07-10T14:29:00;0.93;;;0.60;;
38783;SDS011;24531;45.502;12.238;2022-07-10T14:31:27;3.28;;;0.95;;
38783;SDS011;24531;45.502;12.238;2022-07-10T14:33:53;2.95;;;0.65;;
38783;SDS011;24531;45.502;12.238;2022-07-10T14:36:18;2.22;;;0.70;;
38783;SDS011;24531;45.502;12.238;2022-07-10T14:38:44;1.20;;;0.70;;
38783;SDS011;24531;45.502;12.238;2022-07-10T14:41:10;1.88;;;0.68;;
38783;SDS011;24531;45.502;12.238;2022-07-10T14:43:35;2.72;;;0.50;;
38783;SDS011;24531;45.502;12.238;2022-07-10T14:46:01;1.83;;;0.95;;
38783;SDS011;24531;45.502;12.238;2022-07-10T14:48:30;1.58;;;0.52;;
38783;SDS011;24531;45.502;12.238;2022-07-10T14:50:56;5.28;;;0.63;;
38783;SDS011;24531;45.502;12.238;2022-07-10T14:53:23;1.17;;;0.70;;
38783;SDS011;24531;45.502;12.238;2022-07-10T14:55:49;3.30;;;0.60;;
38783;SDS011;24531;45.502;12.238;2022-07-10T14:58:14;2.47;;;0.70;;
38783;SDS011;24531;45.502;12.238;2022-07-10T15:00:40;1.55;;;0.68;;
38783;SDS011;24531;45.502;12.238;2022-07-10T15:03:06;1.10;;;0.43;;
38783;SDS011;24531;45.502;12.238;2022-07-10T15:05:32;4.57;;;0.52;;
38783;SDS011;24531;45.502;12.238;2022-07-10T15:07:58;4.18;;;1.15;;
38783;SDS011;24531;45.502;12.238;2022-07-10T15:10:25;1.65;;;0.40;;
38783;SDS011;24531;45.502;12.238;2022-07-10T15:12:51;4.88;;;0.80;;
38783;SDS011;24531;45.502;12.238;2022-07-10T15:15:17;0.90;;;0.47;;
38783;SDS011;24531;45.502;12.238;2022-07-10T15:17:42;0.52;;;0.40;;
38783;SDS011;24531;45.502;12.238;2022-07-10T15:20:09;1.30;;;0.60;;
38783;SDS011;24531;45.502;12.238;2022-07-10T15:22:35;2.47;;;1.10;;